首页
METAR-TAF:

METAR-TAF

机场 :

山美納省, 多米尼加共和国

纬度: 19-16-12N, 经度: 69-44-15W, 海拔: 4米

当前天气观测

该预报发布于14分钟前的18:00 UTC
风速4节,风向
温度 30°C
湿度 62%
气压 1019 hPa
能见度10公里或以上
少量云层高于2300英尺

METAR: MDCY 101800Z 09004KT 9999 FEW023 30/22 Q1019

时间: 14:14 (18:14 UTC)

预报

该预报发布于2小时和14分钟前的16:00 UTC
预报有效从10日的 18点(UTC)到 11日的 18点(UTC)
风速10节,风向南转南东
能见度10公里或以上
少量云层高于2400英尺
几率 30%
从 10日的 18点(UTC)到 11日的 00点(UTC)
能見度: 7000
散云层高于2000英尺

TAF: MDCY 101600Z 1018/1118 15010KT 9999 FEW024 PROB30 1018/1100 7000 ?SH SCT020

超过4000个机场的气象观测和天气预报(METAR&TAF报告)。

可查询的气象台以黄色和红色小点在地图上表示。

将鼠标移到小点上方,可查看气象台名称。

然后点击查看天气观测和预报。

如需切换地图:点击带黑十字的绿色按钮放大地图;点击带横线的绿色按钮缩小地图;或者点击绿色箭头查看邻近地区的地图。


METAR-TAF: